This is the latest recevied weather packets stored in our database for station/object OM6ACB-6. If no packets are shown the sender has not sent any weather packets the latest 10 day(s).
| Time | Temp. | Humidity | Pressure | Rain* | Wind** | Luminosity | Snow |
|---|---|---|---|---|---|---|---|
| 1777659705 | 12.22° C | 27% | 1026.3 hPa | 0 mm | - | - | - |
| 1777659105 | 12.22° C | 26% | 1026.4 hPa | 0 mm | - | - | - |
| 1777658505 | 12.78° C | 26% | 1026.4 hPa | 0 mm | - | - | - |
| 1777657904 | 13.33° C | 26% | 1026.4 hPa | 0 mm | - | - | - |
| 1777657304 | 13.89° C | 26% | 1026.4 hPa | 0 mm | - | - | - |
| 1777656704 | 15° C | 25% | 1026.6 hPa | 0 mm | - | - | - |
| 1777656104 | 15.56° C | 25% | 1026.7 hPa | 0 mm | - | - | - |
| 1777655503 | 16.11° C | 25% | 1026.7 hPa | 0 mm | - | - | - |
| 1777654903 | 16.11° C | 24% | 1026.7 hPa | 0 mm | - | - | - |
| 1777654303 | 16.67° C | 24% | 1026.8 hPa | 0 mm | - | - | - |
| 1777653702 | 16.11° C | 24% | 1026.9 hPa | 0 mm | - | - | - |
| 1777653102 | 16.11° C | 24% | 1026.9 hPa | 0 mm | - | - | - |
| 1777652502 | 16.67° C | 24% | 1027 hPa | 0 mm | - | - | - |
| 1777651902 | 16.67° C | 24% | 1027 hPa | 0 mm | - | - | - |
| 1777651301 | 16.11° C | 24% | 1027.1 hPa | 0 mm | - | - | - |
| 1777650701 | 16.67° C | 24% | 1027.2 hPa | 0 mm | - | - | - |
| 1777650101 | 16.67° C | 24% | 1027.3 hPa | 0 mm | - | - | - |
| 1777649500 | 16.67° C | 24% | 1027.4 hPa | 0 mm | - | - | - |
| 1777648900 | 16.67° C | 24% | 1027.6 hPa | 0 mm | - | - | - |
| 1777648300 | 16.67° C | 24% | 1027.6 hPa | 0 mm | - | - | - |
| 1777647700 | 16.67° C | 24% | 1027.7 hPa | 0 mm | - | - | - |
| 1777647099 | 19.44° C | 23% | 1028.1 hPa | 0 mm | - | - | - |
| 1777646499 | 16.67° C | 24% | 1027.7 hPa | 0 mm | - | - | - |
| 1777645899 | 15.56° C | 25% | 1027.6 hPa | 0 mm | - | - | - |
| 1777645299 | 15.56° C | 25% | 1027.7 hPa | 0 mm | - | - | - |
* Rain latest hour (hover to see other rain measurements)
** Current wind speed in m/s (hover to see current wind gust speed)